sensor_id;sensor_type;location;lat;lon;timestamp;P1;durP1;ratioP1;P2;durP2;ratioP2
44328;SDS011;30039;51.462;6.892;2023-04-01T00:01:39;3.22;;;0.90;;
44328;SDS011;30039;51.462;6.892;2023-04-01T00:04:25;6.47;;;1.00;;
44328;SDS011;30039;51.462;6.892;2023-04-01T00:07:10;3.40;;;0.90;;
44328;SDS011;30039;51.462;6.892;2023-04-01T00:09:57;3.88;;;0.90;;
44328;SDS011;30039;51.462;6.892;2023-04-01T00:12:45;4.88;;;0.95;;
44328;SDS011;30039;51.462;6.892;2023-04-01T00:15:30;3.88;;;0.60;;
44328;SDS011;30039;51.462;6.892;2023-04-01T00:18:16;1.55;;;0.57;;
44328;SDS011;30039;51.462;6.892;2023-04-01T00:21:03;1.85;;;0.55;;
44328;SDS011;30039;51.462;6.892;2023-04-01T00:23:49;2.70;;;0.88;;
44328;SDS011;30039;51.462;6.892;2023-04-01T00:26:35;3.50;;;0.95;;
44328;SDS011;30039;51.462;6.892;2023-04-01T00:29:22;2.83;;;0.57;;
44328;SDS011;30039;51.462;6.892;2023-04-01T00:32:09;3.40;;;0.63;;
44328;SDS011;30039;51.462;6.892;2023-04-01T00:34:55;3.00;;;0.80;;
44328;SDS011;30039;51.462;6.892;2023-04-01T00:37:41;1.20;;;0.70;;
44328;SDS011;30039;51.462;6.892;2023-04-01T00:40:28;1.92;;;0.85;;
44328;SDS011;30039;51.462;6.892;2023-04-01T00:43:15;0.57;;;0.50;;
44328;SDS011;30039;51.462;6.892;2023-04-01T00:46:03;1.55;;;0.60;;
44328;SDS011;30039;51.462;6.892;2023-04-01T00:48:53;1.08;;;0.60;;
44328;SDS011;30039;51.462;6.892;2023-04-01T00:51:39;2.70;;;0.75;;
44328;SDS011;30039;51.462;6.892;2023-04-01T00:54:27;2.50;;;0.75;;
44328;SDS011;30039;51.462;6.892;2023-04-01T00:57:15;1.70;;;0.60;;
44328;SDS011;30039;51.462;6.892;2023-04-01T01:00:06;1.45;;;0.70;;
44328;SDS011;30039;51.462;6.892;2023-04-01T01:02:54;2.20;;;0.70;;
44328;SDS011;30039;51.462;6.892;2023-04-01T01:06:29;2.10;;;0.70;;
44328;SDS011;30039;51.462;6.892;2023-04-01T01:11:43;1.40;;;0.80;;
44328;SDS011;30039;51.462;6.892;2023-04-01T01:23:23;2.03;;;0.60;;
44328;SDS011;30039;51.462;6.892;2023-04-01T01:38:03;1.45;;;0.57;;
44328;SDS011;30039;51.462;6.892;2023-04-01T01:40:51;1.17;;;0.70;;
44328;SDS011;30039;51.462;6.892;2023-04-01T01:43:40;2.85;;;0.65;;
44328;SDS011;30039;51.462;6.892;2023-04-01T01:46:27;2.03;;;0.45;;
44328;SDS011;30039;51.462;6.892;2023-04-01T01:49:14;1.20;;;0.60;;
44328;SDS011;30039;51.462;6.892;2023-04-01T01:52:02;2.65;;;0.73;;
44328;SDS011;30039;51.462;6.892;2023-04-01T01:54:49;2.15;;;0.70;;
44328;SDS011;30039;51.462;6.892;2023-04-01T01:57:36;1.10;;;0.52;;
44328;SDS011;30039;51.462;6.892;2023-04-01T02:00:23;1.00;;;0.47;;
44328;SDS011;30039;51.462;6.892;2023-04-01T02:03:10;0.65;;;0.50;;
44328;SDS011;30039;51.462;6.892;2023-04-01T02:05:58;1.85;;;0.70;;
44328;SDS011;30039;51.462;6.892;2023-04-01T02:08:59;2.78;;;0.60;;
44328;SDS011;30039;51.462;6.892;2023-04-01T02:11:51;2.20;;;0.80;;
44328;SDS011;30039;51.462;6.892;2023-04-01T02:17:40;0.77;;;0.50;;
44328;SDS011;30039;51.462;6.892;2023-04-01T02:20:33;1.35;;;0.52;;
44328;SDS011;30039;51.462;6.892;2023-04-01T02:23:20;2.38;;;0.70;;
44328;SDS011;30039;51.462;6.892;2023-04-01T02:26:06;1.60;;;0.55;;
44328;SDS011;30039;51.462;6.892;2023-04-01T02:28:53;1.90;;;0.75;;
44328;SDS011;30039;51.462;6.892;2023-04-01T02:31:39;1.40;;;0.60;;
44328;SDS011;30039;51.462;6.892;2023-04-01T02:34:25;3.03;;;0.75;;
44328;SDS011;30039;51.462;6.892;2023-04-01T02:37:11;2.65;;;0.82;;
44328;SDS011;30039;51.462;6.892;2023-04-01T02:40:02;2.13;;;0.60;;
44328;SDS011;30039;51.462;6.892;2023-04-01T02:42:49;1.33;;;0.77;;
44328;SDS011;30039;51.462;6.892;2023-04-01T02:45:36;2.13;;;0.75;;
44328;SDS011;30039;51.462;6.892;2023-04-01T02:48:21;1.35;;;0.57;;
44328;SDS011;30039;51.462;6.892;2023-04-01T02:51:08;2.17;;;0.80;;
44328;SDS011;30039;51.462;6.892;2023-04-01T02:53:53;1.48;;;0.90;;
44328;SDS011;30039;51.462;6.892;2023-04-01T02:56:39;1.55;;;0.90;;
44328;SDS011;30039;51.462;6.892;2023-04-01T02:59:25;5.72;;;1.40;;
44328;SDS011;30039;51.462;6.892;2023-04-01T03:02:12;2.05;;;0.90;;
44328;SDS011;30039;51.462;6.892;2023-04-01T03:04:58;0.85;;;0.75;;
44328;SDS011;30039;51.462;6.892;2023-04-01T03:07:44;2.03;;;1.20;;
44328;SDS011;30039;51.462;6.892;2023-04-01T03:10:29;1.88;;;1.13;;
44328;SDS011;30039;51.462;6.892;2023-04-01T03:13:15;1.75;;;0.75;;
44328;SDS011;30039;51.462;6.892;2023-04-01T03:16:01;1.48;;;1.00;;
44328;SDS011;30039;51.462;6.892;2023-04-01T03:18:46;2.28;;;1.38;;
44328;SDS011;30039;51.462;6.892;2023-04-01T03:21:34;3.22;;;1.40;;
44328;SDS011;30039;51.462;6.892;2023-04-01T03:24:21;2.85;;;1.75;;
44328;SDS011;30039;51.462;6.892;2023-04-01T03:27:07;2.85;;;1.90;;
44328;SDS011;30039;51.462;6.892;2023-04-01T03:29:52;4.40;;;2.42;;
44328;SDS011;30039;51.462;6.892;2023-04-01T03:32:38;5.72;;;2.90;;
44328;SDS011;30039;51.462;6.892;2023-04-01T03:35:23;4.95;;;2.65;;
44328;SDS011;30039;51.462;6.892;2023-04-01T03:38:09;2.47;;;1.90;;
44328;SDS011;30039;51.462;6.892;2023-04-01T03:40:55;2.75;;;1.38;;
44328;SDS011;30039;51.462;6.892;2023-04-01T03:43:41;1.30;;;1.00;;
44328;SDS011;30039;51.462;6.892;2023-04-01T03:46:26;1.90;;;1.10;;
44328;SDS011;30039;51.462;6.892;2023-04-01T03:49:12;1.23;;;1.02;;
44328;SDS011;30039;51.462;6.892;2023-04-01T03:51:58;2.75;;;1.45;;
44328;SDS011;30039;51.462;6.892;2023-04-01T03:54:44;1.83;;;1.05;;
44328;SDS011;30039;51.462;6.892;2023-04-01T03:57:32;1.05;;;0.80;;
44328;SDS011;30039;51.462;6.892;2023-04-01T04:00:18;1.92;;;0.88;;
44328;SDS011;30039;51.462;6.892;2023-04-01T04:03:05;1.85;;;0.80;;
44328;SDS011;30039;51.462;6.892;2023-04-01T04:05:51;2.72;;;1.20;;
44328;SDS011;30039;51.462;6.892;2023-04-01T04:08:37;1.23;;;0.90;;
44328;SDS011;30039;51.462;6.892;2023-04-01T04:11:23;2.40;;;0.75;;
44328;SDS011;30039;51.462;6.892;2023-04-01T04:14:09;2.50;;;0.95;;
44328;SDS011;30039;51.462;6.892;2023-04-01T04:16:55;2.20;;;0.95;;
44328;SDS011;30039;51.462;6.892;2023-04-01T04:19:40;2.47;;;0.90;;
44328;SDS011;30039;51.462;6.892;2023-04-01T04:22:26;2.05;;;1.00;;
44328;SDS011;30039;51.462;6.892;2023-04-01T04:25:12;3.42;;;0.90;;
44328;SDS011;30039;51.462;6.892;2023-04-01T04:27:57;3.22;;;0.70;;
44328;SDS011;30039;51.462;6.892;2023-04-01T04:30:43;0.93;;;0.70;;
44328;SDS011;30039;51.462;6.892;2023-04-01T04:33:28;2.08;;;0.80;;
44328;SDS011;30039;51.462;6.892;2023-04-01T04:36:14;0.90;;;0.80;;
44328;SDS011;30039;51.462;6.892;2023-04-01T04:39:01;3.03;;;0.98;;
44328;SDS011;30039;51.462;6.892;2023-04-01T04:41:48;2.53;;;0.90;;
44328;SDS011;30039;51.462;6.892;2023-04-01T04:44:34;1.52;;;1.08;;
44328;SDS011;30039;51.462;6.892;2023-04-01T04:47:20;3.67;;;1.42;;
44328;SDS011;30039;51.462;6.892;2023-04-01T04:50:06;1.35;;;1.00;;
44328;SDS011;30039;51.462;6.892;2023-04-01T04:52:52;2.20;;;1.20;;
44328;SDS011;30039;51.462;6.892;2023-04-01T04:55:42;1.40;;;1.00;;
44328;SDS011;30039;51.462;6.892;2023-04-01T04:58:43;2.03;;;1.10;;
44328;SDS011;30039;51.462;6.892;2023-04-01T05:01:29;2.28;;;1.40;;
44328;SDS011;30039;51.462;6.892;2023-04-01T05:04:15;1.52;;;1.20;;
44328;SDS011;30039;51.462;6.892;2023-04-01T05:07:00;1.92;;;1.30;;
44328;SDS011;30039;51.462;6.892;2023-04-01T05:09:47;1.50;;;1.20;;
44328;SDS011;30039;51.462;6.892;2023-04-01T05:12:33;1.67;;;1.00;;
44328;SDS011;30039;51.462;6.892;2023-04-01T05:15:22;2.30;;;1.05;;
44328;SDS011;30039;51.462;6.892;2023-04-01T05:18:08;3.42;;;1.00;;
44328;SDS011;30039;51.462;6.892;2023-04-01T05:20:54;1.65;;;1.00;;
44328;SDS011;30039;51.462;6.892;2023-04-01T05:23:40;1.90;;;1.10;;
44328;SDS011;30039;51.462;6.892;2023-04-01T05:26:26;1.92;;;1.30;;
44328;SDS011;30039;51.462;6.892;2023-04-01T05:29:12;2.03;;;1.27;;
44328;SDS011;30039;51.462;6.892;2023-04-01T05:31:57;2.88;;;1.65;;
44328;SDS011;30039;51.462;6.892;2023-04-01T05:34:43;2.85;;;1.73;;
44328;SDS011;30039;51.462;6.892;2023-04-01T05:37:29;3.00;;;2.13;;
44328;SDS011;30039;51.462;6.892;2023-04-01T05:40:14;3.78;;;2.40;;
44328;SDS011;30039;51.462;6.892;2023-04-01T05:43:00;4.30;;;2.50;;
44328;SDS011;30039;51.462;6.892;2023-04-01T05:45:46;2.90;;;2.20;;
44328;SDS011;30039;51.462;6.892;2023-04-01T05:48:34;5.38;;;2.60;;
44328;SDS011;30039;51.462;6.892;2023-04-01T05:51:20;4.65;;;2.72;;
44328;SDS011;30039;51.462;6.892;2023-04-01T05:54:07;3.42;;;2.58;;
44328;SDS011;30039;51.462;6.892;2023-04-01T05:56:53;3.97;;;2.75;;
44328;SDS011;30039;51.462;6.892;2023-04-01T05:59:38;6.25;;;2.92;;
44328;SDS011;30039;51.462;6.892;2023-04-01T06:02:24;4.03;;;2.58;;
44328;SDS011;30039;51.462;6.892;2023-04-01T06:05:23;3.30;;;2.22;;
44328;SDS011;30039;51.462;6.892;2023-04-01T06:08:10;3.15;;;2.33;;
44328;SDS011;30039;51.462;6.892;2023-04-01T06:28:54;4.05;;;2.50;;
44328;SDS011;30039;51.462;6.892;2023-04-01T06:34:38;4.88;;;3.10;;
44328;SDS011;30039;51.462;6.892;2023-04-01T06:50:07;4.13;;;2.88;;
44328;SDS011;30039;51.462;6.892;2023-04-01T06:52:47;4.35;;;3.00;;
44328;SDS011;30039;51.462;6.892;2023-04-01T06:55:37;4.45;;;3.13;;
44328;SDS011;30039;51.462;6.892;2023-04-01T06:58:26;4.35;;;3.05;;
44328;SDS011;30039;51.462;6.892;2023-04-01T07:01:16;4.22;;;2.83;;
44328;SDS011;30039;51.462;6.892;2023-04-01T07:04:09;4.30;;;2.92;;
44328;SDS011;30039;51.462;6.892;2023-04-01T07:07:21;4.15;;;2.75;;
44328;SDS011;30039;51.462;6.892;2023-04-01T07:10:04;4.82;;;3.10;;
44328;SDS011;30039;51.462;6.892;2023-04-01T07:12:51;3.65;;;2.53;;
44328;SDS011;30039;51.462;6.892;2023-04-01T07:15:40;4.68;;;3.40;;
44328;SDS011;30039;51.462;6.892;2023-04-01T07:18:38;4.90;;;3.08;;
44328;SDS011;30039;51.462;6.892;2023-04-01T07:21:32;4.15;;;2.70;;
44328;SDS011;30039;51.462;6.892;2023-04-01T07:27:10;3.53;;;2.47;;
44328;SDS011;30039;51.462;6.892;2023-04-01T07:29:56;3.85;;;2.55;;
44328;SDS011;30039;51.462;6.892;2023-04-01T07:32:44;3.28;;;2.40;;
44328;SDS011;30039;51.462;6.892;2023-04-01T07:35:35;4.78;;;2.42;;
44328;SDS011;30039;51.462;6.892;2023-04-01T07:38:30;3.60;;;1.88;;
44328;SDS011;30039;51.462;6.892;2023-04-01T07:41:23;4.97;;;2.13;;
44328;SDS011;30039;51.462;6.892;2023-04-01T07:53:48;3.63;;;2.03;;
44328;SDS011;30039;51.462;6.892;2023-04-01T08:02:09;2.97;;;2.13;;
44328;SDS011;30039;51.462;6.892;2023-04-01T08:10:43;3.92;;;2.88;;
44328;SDS011;30039;51.462;6.892;2023-04-01T08:13:51;7.22;;;2.50;;
44328;SDS011;30039;51.462;6.892;2023-04-01T08:16:54;4.75;;;2.75;;
44328;SDS011;30039;51.462;6.892;2023-04-01T08:22:41;6.70;;;3.15;;
44328;SDS011;30039;51.462;6.892;2023-04-01T08:25:28;6.25;;;2.78;;
44328;SDS011;30039;51.462;6.892;2023-04-01T08:28:27;5.30;;;3.05;;
44328;SDS011;30039;51.462;6.892;2023-04-01T08:31:37;6.03;;;3.33;;
44328;SDS011;30039;51.462;6.892;2023-04-01T08:34:28;5.63;;;2.88;;
44328;SDS011;30039;51.462;6.892;2023-04-01T08:37:21;4.00;;;2.60;;
44328;SDS011;30039;51.462;6.892;2023-04-01T08:43:28;3.88;;;2.80;;
44328;SDS011;30039;51.462;6.892;2023-04-01T08:46:26;4.50;;;2.95;;
44328;SDS011;30039;51.462;6.892;2023-04-01T08:49:31;4.00;;;2.83;;
44328;SDS011;30039;51.462;6.892;2023-04-01T09:04:25;4.50;;;2.75;;
44328;SDS011;30039;51.462;6.892;2023-04-01T09:46:33;9.10;;;5.55;;
44328;SDS011;30039;51.462;6.892;2023-04-01T09:49:22;15.02;;;7.05;;
44328;SDS011;30039;51.462;6.892;2023-04-01T10:10:15;6.75;;;4.70;;
44328;SDS011;30039;51.462;6.892;2023-04-01T10:16:48;5.72;;;4.30;;
44328;SDS011;30039;51.462;6.892;2023-04-01T10:22:36;8.40;;;5.68;;
44328;SDS011;30039;51.462;6.892;2023-04-01T10:25:29;7.63;;;5.32;;
44328;SDS011;30039;51.462;6.892;2023-04-01T10:28:37;7.03;;;5.43;;
44328;SDS011;30039;51.462;6.892;2023-04-01T10:31:41;9.65;;;6.07;;
44328;SDS011;30039;51.462;6.892;2023-04-01T11:13:23;7.95;;;5.07;;
44328;SDS011;30039;51.462;6.892;2023-04-01T11:45:07;9.15;;;6.60;;
44328;SDS011;30039;51.462;6.892;2023-04-01T12:03:01;9.13;;;5.78;;
44328;SDS011;30039;51.462;6.892;2023-04-01T12:08:58;9.63;;;6.47;;
44328;SDS011;30039;51.462;6.892;2023-04-01T12:14:40;10.20;;;5.63;;
44328;SDS011;30039;51.462;6.892;2023-04-01T12:17:50;8.93;;;5.72;;
44328;SDS011;30039;51.462;6.892;2023-04-01T12:20:44;12.60;;;7.93;;
44328;SDS011;30039;51.462;6.892;2023-04-01T12:41:20;8.32;;;5.95;;
44328;SDS011;30039;51.462;6.892;2023-04-01T12:44:16;9.55;;;6.03;;
44328;SDS011;30039;51.462;6.892;2023-04-01T12:59:20;11.25;;;6.28;;
44328;SDS011;30039;51.462;6.892;2023-04-01T13:02:52;9.38;;;6.13;;
44328;SDS011;30039;51.462;6.892;2023-04-01T13:05:20;8.25;;;5.85;;
44328;SDS011;30039;51.462;6.892;2023-04-01T13:17:22;8.20;;;5.75;;
44328;SDS011;30039;51.462;6.892;2023-04-01T13:29:31;8.65;;;5.25;;
44328;SDS011;30039;51.462;6.892;2023-04-01T13:32:22;9.27;;;5.80;;
44328;SDS011;30039;51.462;6.892;2023-04-01T13:41:36;7.40;;;5.15;;
44328;SDS011;30039;51.462;6.892;2023-04-01T13:44:34;11.30;;;7.03;;
44328;SDS011;30039;51.462;6.892;2023-04-01T14:08:00;8.05;;;4.68;;
44328;SDS011;30039;51.462;6.892;2023-04-01T14:11:10;7.70;;;5.57;;
44328;SDS011;30039;51.462;6.892;2023-04-01T14:31:10;8.35;;;5.20;;
44328;SDS011;30039;51.462;6.892;2023-04-01T14:42:53;8.77;;;5.38;;
44328;SDS011;30039;51.462;6.892;2023-04-01T14:51:33;9.25;;;5.78;;
44328;SDS011;30039;51.462;6.892;2023-04-01T14:54:32;6.72;;;4.47;;
44328;SDS011;30039;51.462;6.892;2023-04-01T14:57:27;8.40;;;5.38;;
44328;SDS011;30039;51.462;6.892;2023-04-01T15:00:13;9.38;;;5.85;;
44328;SDS011;30039;51.462;6.892;2023-04-01T15:03:20;7.05;;;5.25;;
44328;SDS011;30039;51.462;6.892;2023-04-01T15:09:22;8.47;;;5.23;;
44328;SDS011;30039;51.462;6.892;2023-04-01T15:22:03;7.88;;;4.97;;
44328;SDS011;30039;51.462;6.892;2023-04-01T15:25:03;8.88;;;5.20;;
44328;SDS011;30039;51.462;6.892;2023-04-01T15:33:52;8.93;;;5.95;;
44328;SDS011;30039;51.462;6.892;2023-04-01T15:36:43;9.07;;;5.47;;
44328;SDS011;30039;51.462;6.892;2023-04-01T15:42:54;10.20;;;5.45;;
44328;SDS011;30039;51.462;6.892;2023-04-01T15:50:12;15.52;;;8.05;;
44328;SDS011;30039;51.462;6.892;2023-04-01T15:52:14;19.10;;;8.82;;
44328;SDS011;30039;51.462;6.892;2023-04-01T15:55:17;9.35;;;4.97;;
44328;SDS011;30039;51.462;6.892;2023-04-01T16:07:10;8.23;;;4.40;;
44328;SDS011;30039;51.462;6.892;2023-04-01T16:22:13;5.72;;;3.88;;
44328;SDS011;30039;51.462;6.892;2023-04-01T16:28:24;5.68;;;3.65;;
44328;SDS011;30039;51.462;6.892;2023-04-01T16:36:53;6.80;;;4.40;;
44328;SDS011;30039;51.462;6.892;2023-04-01T16:39:52;6.63;;;3.80;;
44328;SDS011;30039;51.462;6.892;2023-04-01T16:48:27;5.68;;;4.40;;
44328;SDS011;30039;51.462;6.892;2023-04-01T16:51:16;5.47;;;4.22;;
44328;SDS011;30039;51.462;6.892;2023-04-01T17:05:51;6.90;;;3.80;;
44328;SDS011;30039;51.462;6.892;2023-04-01T17:18:11;5.78;;;4.38;;
44328;SDS011;30039;51.462;6.892;2023-04-01T17:20:50;7.93;;;4.40;;
44328;SDS011;30039;51.462;6.892;2023-04-01T17:23:52;8.15;;;5.10;;
44328;SDS011;30039;51.462;6.892;2023-04-01T17:38:49;8.00;;;5.28;;
44328;SDS011;30039;51.462;6.892;2023-04-01T17:41:42;7.25;;;4.65;;
44328;SDS011;30039;51.462;6.892;2023-04-01T17:53:19;7.80;;;5.45;;
44328;SDS011;30039;51.462;6.892;2023-04-01T18:02:09;8.10;;;5.78;;
44328;SDS011;30039;51.462;6.892;2023-04-01T18:22:24;9.65;;;6.65;;
44328;SDS011;30039;51.462;6.892;2023-04-01T18:28:35;10.32;;;6.90;;
44328;SDS011;30039;51.462;6.892;2023-04-01T18:31:32;9.60;;;6.70;;
44328;SDS011;30039;51.462;6.892;2023-04-01T18:40:35;9.05;;;6.32;;
44328;SDS011;30039;51.462;6.892;2023-04-01T18:43:36;8.18;;;6.35;;
44328;SDS011;30039;51.462;6.892;2023-04-01T18:52:42;8.30;;;5.50;;
44328;SDS011;30039;51.462;6.892;2023-04-01T18:55:33;6.55;;;5.15;;
44328;SDS011;30039;51.462;6.892;2023-04-01T19:04:30;5.75;;;4.32;;
44328;SDS011;30039;51.462;6.892;2023-04-01T19:07:39;5.95;;;4.35;;
44328;SDS011;30039;51.462;6.892;2023-04-01T19:26:04;7.38;;;5.28;;
44328;SDS011;30039;51.462;6.892;2023-04-01T19:28:58;7.18;;;4.97;;
44328;SDS011;30039;51.462;6.892;2023-04-01T19:38:04;2.75;;;2.13;;
44328;SDS011;30039;51.462;6.892;2023-04-01T19:41:12;3.13;;;2.20;;
44328;SDS011;30039;51.462;6.892;2023-04-01T19:44:26;2.80;;;2.40;;
44328;SDS011;30039;51.462;6.892;2023-04-01T19:47:26;4.57;;;2.60;;
44328;SDS011;30039;51.462;6.892;2023-04-01T19:50:29;2.90;;;2.03;;
44328;SDS011;30039;51.462;6.892;2023-04-01T19:56:19;3.03;;;1.95;;
44328;SDS011;30039;51.462;6.892;2023-04-01T20:05:04;2.95;;;2.25;;
44328;SDS011;30039;51.462;6.892;2023-04-01T20:08:22;3.25;;;1.60;;
44328;SDS011;30039;51.462;6.892;2023-04-01T20:11:29;3.67;;;2.00;;
44328;SDS011;30039;51.462;6.892;2023-04-01T20:25:47;2.80;;;2.47;;
44328;SDS011;30039;51.462;6.892;2023-04-01T20:34:19;4.13;;;1.90;;
44328;SDS011;30039;51.462;6.892;2023-04-01T20:52:01;2.85;;;1.90;;
44328;SDS011;30039;51.462;6.892;2023-04-01T21:03:41;3.08;;;2.35;;
44328;SDS011;30039;51.462;6.892;2023-04-01T21:06:53;2.22;;;2.00;;
44328;SDS011;30039;51.462;6.892;2023-04-01T21:12:56;2.92;;;1.85;;
44328;SDS011;30039;51.462;6.892;2023-04-01T21:15:47;2.75;;;1.98;;
44328;SDS011;30039;51.462;6.892;2023-04-01T21:21:41;2.30;;;1.55;;
44328;SDS011;30039;51.462;6.892;2023-04-01T21:30:19;1.90;;;1.40;;
44328;SDS011;30039;51.462;6.892;2023-04-01T21:44:56;1.83;;;1.20;;
44328;SDS011;30039;51.462;6.892;2023-04-01T21:53:38;1.40;;;1.30;;
44328;SDS011;30039;51.462;6.892;2023-04-01T21:56:45;1.30;;;1.20;;
44328;SDS011;30039;51.462;6.892;2023-04-01T22:08:32;1.75;;;1.48;;
44328;SDS011;30039;51.462;6.892;2023-04-01T22:14:32;3.22;;;1.98;;
44328;SDS011;30039;51.462;6.892;2023-04-01T22:20:43;2.08;;;1.60;;
44328;SDS011;30039;51.462;6.892;2023-04-01T22:23:29;2.38;;;1.95;;
44328;SDS011;30039;51.462;6.892;2023-04-01T22:29:12;2.60;;;1.73;;
44328;SDS011;30039;51.462;6.892;2023-04-01T22:32:15;2.78;;;1.58;;
44328;SDS011;30039;51.462;6.892;2023-04-01T22:35:23;2.50;;;1.90;;
44328;SDS011;30039;51.462;6.892;2023-04-01T22:41:19;2.40;;;1.90;;
44328;SDS011;30039;51.462;6.892;2023-04-01T22:44:13;2.65;;;1.80;;
44328;SDS011;30039;51.462;6.892;2023-04-01T22:50:45;2.17;;;1.60;;
44328;SDS011;30039;51.462;6.892;2023-04-01T22:56:07;2.88;;;2.08;;
44328;SDS011;30039;51.462;6.892;2023-04-01T22:59:07;2.63;;;1.88;;
44328;SDS011;30039;51.462;6.892;2023-04-01T23:01:56;3.30;;;2.03;;
44328;SDS011;30039;51.462;6.892;2023-04-01T23:04:45;3.08;;;2.05;;
44328;SDS011;30039;51.462;6.892;2023-04-01T23:10:25;3.45;;;2.70;;
44328;SDS011;30039;51.462;6.892;2023-04-01T23:13:18;3.67;;;2.60;;
44328;SDS011;30039;51.462;6.892;2023-04-01T23:16:06;3.72;;;2.50;;
44328;SDS011;30039;51.462;6.892;2023-04-01T23:18:57;2.55;;;1.98;;
44328;SDS011;30039;51.462;6.892;2023-04-01T23:21:59;5.05;;;2.00;;
44328;SDS011;30039;51.462;6.892;2023-04-01T23:27:56;3.08;;;2.10;;
44328;SDS011;30039;51.462;6.892;2023-04-01T23:33:30;5.85;;;2.60;;
44328;SDS011;30039;51.462;6.892;2023-04-01T23:36:16;4.38;;;2.53;;
44328;SDS011;30039;51.462;6.892;2023-04-01T23:39:04;3.35;;;2.40;;
44328;SDS011;30039;51.462;6.892;2023-04-01T23:41:55;2.65;;;1.77;;
44328;SDS011;30039;51.462;6.892;2023-04-01T23:44:41;1.95;;;1.45;;
44328;SDS011;30039;51.462;6.892;2023-04-01T23:47:32;2.55;;;1.90;;
44328;SDS011;30039;51.462;6.892;2023-04-01T23:50:20;2.30;;;1.70;;
44328;SDS011;30039;51.462;6.892;2023-04-01T23:53:41;3.47;;;1.90;;
44328;SDS011;30039;51.462;6.892;2023-04-01T23:56:18;2.30;;;1.67;;
44328;SDS011;30039;51.462;6.892;2023-04-01T23:59:03;2.95;;;2.00;;
